Observation data for Post on 02/11/2018      Previous  Date  Next       Current Mesonet Observations  Soil Data  Daily Summary Page  Observations in Plain Language
KPT1 110600Z 03013KT M06/M14 A3002 RMK A01 T10571137  RH  054%=      5-min Rain = 0
KPT1 110605Z 03012KT M06/M14 A3002 RMK A01 T10581137  RH  054%=      5-min Rain = 0
KPT1 110610Z 03012KT M06/M14 A3002 RMK A01 T10581137  RH  055%=      5-min Rain = 0
KPT1 110615Z 03012KT M06/M14 A3002 RMK A01 T10591137  RH  055%=      5-min Rain = 0
KPT1 110620Z 03014G19KT M06/M14 A3002 RMK A01 T10601136  RH  056%=      5-min Rain = 0
KPT1 110625Z 03013KT M06/M14 A3002 RMK A01 T10601136  RH  056%=      5-min Rain = 0
KPT1 110630Z 03011G16KT M06/M14 A3002 RMK A01 T10611136  RH  056%=      5-min Rain = 0
KPT1 110635Z 03011KT M06/M14 A3002 RMK A01 T10621136  RH  057%=      5-min Rain = 0
KPT1 110640Z 03009KT M06/M14 A3003 RMK A01 T10621136  RH  057%=      5-min Rain = 0
KPT1 110645Z 03009KT M06/M14 A3003 RMK A01 T10631136  RH  057%=      5-min Rain = 0
KPT1 110650Z 02009KT M06/M14 A3003 RMK A01 T10631135  RH  058%=      5-min Rain = 0
KPT1 110655Z 02009KT M06/M14 A3003 RMK A01 T10641135  RH  058%=      5-min Rain = 0
KPT1 110700Z 02010KT M06/M13 A3003 RMK A01 T10631134  RH  058%=      5-min Rain = 0
KPT1 110705Z 03010KT M06/M13 A3003 RMK A01 T10611134  RH  057%=      5-min Rain = 0
KPT1 110710Z 03010KT M06/M13 A3004 RMK A01 T10611134  RH  057%=      5-min Rain = 0
KPT1 110715Z 02008KT M06/M13 A3004 RMK A01 T10591133  RH  057%=      5-min Rain = 0
KPT1 110720Z 03010KT M06/M13 A3004 RMK A01 T10591133  RH  057%=      5-min Rain = 0
KPT1 110725Z 02009KT M06/M13 A3004 RMK A01 T10581133  RH  056%=      5-min Rain = 0
KPT1 110730Z 02009KT M06/M13 A3004 RMK A01 T10571133  RH  056%=      5-min Rain = 0
KPT1 110735Z 02009KT M06/M13 A3004 RMK A01 T10571132  RH  056%=      5-min Rain = 0
KPT1 110740Z 02008KT M06/M13 A3004 RMK A01 T10561132  RH  056%=      5-min Rain = 0
KPT1 110745Z 01008KT M06/M13 A3004 RMK A01 T10551132  RH  055%=      5-min Rain = 0
KPT1 110750Z 01008KT M06/M13 A3004 RMK A01 T10551132  RH  055%=      5-min Rain = 0
KPT1 110755Z 01008KT M05/M13 A3004 RMK A01 T10541132  RH  055%=      5-min Rain = 0
KPT1 110800Z 01010G15KT M05/M13 A3004 RMK A01 T10531132  RH  055%=      5-min Rain = 0
KPT1 110805Z 02012KT M05/M13 A3004 RMK A01 T10531132  RH  055%=      5-min Rain = 0
KPT1 110810Z 01009KT M05/M13 A3005 RMK A01 T10531132  RH  055%=      5-min Rain = 0
KPT1 110815Z 02009KT M05/M13 A3005 RMK A01 T10521131  RH  054%=      5-min Rain = 0
KPT1 110820Z 02010KT M05/M13 A3005 RMK A01 T10521131  RH  054%=      5-min Rain = 0
KPT1 110825Z 02010G15KT M05/M13 A3006 RMK A01 T10511131  RH  054%=      5-min Rain = 0
KPT1 110830Z 01013KT M05/M13 A3005 RMK A01 T10521132  RH  054%=      5-min Rain = 0
KPT1 110835Z 01011G16KT M05/M13 A3006 RMK A01 T10511132  RH  054%=      5-min Rain = 0
KPT1 110840Z 01013KT M05/M13 A3006 RMK A01 T10521132  RH  054%=      5-min Rain = 0
KPT1 110845Z 00012G17KT M05/M13 A3006 RMK A01 T10511132  RH  054%=      5-min Rain = 0
KPT1 110850Z 00013KT M05/M13 A3006 RMK A01 T10521133  RH  054%=      5-min Rain = 0
KPT1 110855Z 00013KT M05/M13 A3006 RMK A01 T10511133  RH  054%=      5-min Rain = 0
KPT1 110900Z 00015KT M05/M13 A3006 RMK A01 T10511134  RH  053%=      5-min Rain = 0
KPT1 110905Z 01013G18KT M05/M14 A3007 RMK A01 T10521136  RH  053%=      5-min Rain = 0
KPT1 110910Z 00013KT M05/M14 A3007 RMK A01 T10521135  RH  053%=      5-min Rain = 0
KPT1 110915Z 01013KT M05/M14 A3007 RMK A01 T10521136  RH  052%=      5-min Rain = 0
KPT1 110920Z 00014KT M05/M14 A3007 RMK A01 T10521136  RH  052%=      5-min Rain = 0
KPT1 110925Z 01014G20KT M05/M14 A3007 RMK A01 T10531138  RH  052%=      5-min Rain = 0
KPT1 110930Z 01014KT M05/M14 A3007 RMK A01 T10531138  RH  052%=      5-min Rain = 0
KPT1 110935Z 01013G18KT M05/M14 A3008 RMK A01 T10541139  RH  052%=      5-min Rain = 0
KPT1 110940Z 36014KT M06/M14 A3007 RMK A01 T10551139  RH  052%=      5-min Rain = 0
KPT1 110945Z 00014KT M06/M14 A3007 RMK A01 T10551139  RH  052%=      5-min Rain = 0
KPT1 110950Z 36014KT M06/M14 A3007 RMK A01 T10551139  RH  052%=      5-min Rain = 0
KPT1 110955Z 00014KT M06/M14 A3008 RMK A01 T10561140  RH  052%=      5-min Rain = 0
KPT1 111000Z 00012G18KT M06/M14 A3008 RMK A01 T10561140  RH  052%=      5-min Rain = 0
KPT1 111005Z 00012G17KT M06/M14 A3008 RMK A01 T10551140  RH  052%=      5-min Rain = 0
KPT1 111010Z 00011KT M06/M14 A3008 RMK A01 T10561140  RH  052%=      5-min Rain = 0
KPT1 111015Z 36011KT M06/M14 A3008 RMK A01 T10561140  RH  052%=      5-min Rain = 0
KPT1 111020Z 36012KT M06/M14 A3008 RMK A01 T10561140  RH  052%=      5-min Rain = 0
KPT1 111025Z 36012KT M06/M14 A3008 RMK A01 T10561140  RH  052%=      5-min Rain = 0
KPT1 111030Z 36011KT M06/M14 A3008 RMK A01 T10551140  RH  052%=      5-min Rain = 0
KPT1 111035Z 00013KT M06/M14 A3009 RMK A01 T10551141  RH  052%=      5-min Rain = 0
KPT1 111040Z 01013G18KT M06/M14 A3008 RMK A01 T10551142  RH  051%=      5-min Rain = 0
KPT1 111045Z 00013KT M06/M14 A3009 RMK A01 T10551142  RH  051%=      5-min Rain = 0
KPT1 111050Z 00013G19KT M06/M14 A3009 RMK A01 T10561143  RH  051%=      5-min Rain = 0
KPT1 111055Z 36014KT M06/M14 A3009 RMK A01 T10561143  RH  051%=      5-min Rain = 0
KPT1 111100Z 00012G17KT M06/M14 A3009 RMK A01 T10551142  RH  051%=      5-min Rain = 0
KPT1 111105Z 00013G18KT M06/M14 A3009 RMK A01 T10561142  RH  051%=      5-min Rain = 0
KPT1 111110Z 00014G19KT M06/M14 A301 RMK A01 T10551142  RH  051%=      5-min Rain = 0
KPT1 111115Z 00013KT M06/M14 A301 RMK A01 T10551142  RH  051%=      5-min Rain = 0
KPT1 111120Z 00012KT M05/M14 A301 RMK A01 T10541142  RH  051%=      5-min Rain = 0
KPT1 111125Z 36012G18KT M05/M14 A3011 RMK A01 T10541142  RH  051%=      5-min Rain = 0
KPT1 111130Z 36013KT M06/M14 A3011 RMK A01 T10551142  RH  051%=      5-min Rain = 0
KPT1 111135Z 00010KT M05/M14 A3011 RMK A01 T10541142  RH  051%=      5-min Rain = 0
KPT1 111140Z 00014KT M05/M14 A3011 RMK A01 T10531142  RH  050%=      5-min Rain = 0
KPT1 111145Z 00013KT M05/M14 A3011 RMK A01 T10541142  RH  051%=      5-min Rain = 0
KPT1 111150Z 36012KT M05/M14 A3011 RMK A01 T10531142  RH  051%=      5-min Rain = 0
KPT1 111155Z 00010G15KT M05/M14 A3012 RMK A01 T10521141  RH  050%=      5-min Rain = 0
KPT1 111200Z 00013KT M05/M14 A3012 RMK A01 T10531142  RH  050%=      5-min Rain = 0
KPT1 111205Z 00014KT M05/M14 A3012 RMK A01 T10531142  RH  050%=      5-min Rain = 0
KPT1 111210Z 36012G18KT M05/M14 A3013 RMK A01 T10521142  RH  050%=      5-min Rain = 0
KPT1 111215Z 36012G18KT M05/M14 A3013 RMK A01 T10531143  RH  050%=      5-min Rain = 0
KPT1 111220Z 00011KT M05/M14 A3013 RMK A01 T10531143  RH  050%=      5-min Rain = 0
KPT1 111225Z 00014KT M05/M14 A3013 RMK A01 T10541143  RH  050%=      5-min Rain = 0
KPT1 111230Z 00014KT M06/M15 A3014 RMK A01 T10561145  RH  050%=      5-min Rain = 0
KPT1 111235Z 36015G20KT M06/M15 A3014 RMK A01 T10581146  RH  050%=      5-min Rain = 0
KPT1 111240Z 36014G19KT M06/M15 A3014 RMK A01 T10591147  RH  051%=      5-min Rain = 0
KPT1 111245Z 00013KT M06/M15 A3015 RMK A01 T10601147  RH  051%=      5-min Rain = 0
KPT1 111250Z 01011G16KT M06/M15 A3015 RMK A01 T10621148  RH  051%=      5-min Rain = 0
KPT1 111255Z 00012KT M06/M15 A3016 RMK A01 T10641148  RH  052%=      5-min Rain = 0
KPT1 111300Z 00010KT M07/M15 A3016 RMK A01 T10651148  RH  052%=      5-min Rain = 0
KPT1 111305Z 36010KT M07/M15 A3017 RMK A01 T10661148  RH  053%=      5-min Rain = 0
KPT1 111310Z 00009KT M07/M15 A3017 RMK A01 T10671148  RH  054%=      5-min Rain = 0
KPT1 111315Z 36006KT M07/M15 A3017 RMK A01 T10681148  RH  054%=      5-min Rain = 0
KPT1 111320Z 35006KT M07/M15 A3018 RMK A01 T10711148  RH  055%=      5-min Rain = 0
KPT1 111325Z 35006KT M07/M15 A3018 RMK A01 T10711148  RH  055%=      5-min Rain = 0
KPT1 111330Z 35005KT M07/M15 A3018 RMK A01 T10711149  RH  055%=      5-min Rain = 0
KPT1 111335Z 34005KT M07/M15 A3018 RMK A01 T10731148  RH  056%=      5-min Rain = 0
KPT1 111340Z 33005KT M07/M15 A3019 RMK A01 T10741147  RH  057%=      5-min Rain = 0
KPT1 111345Z 33005KT M08/M15 A3019 RMK A01 T10751148  RH  057%=      5-min Rain = 0
KPT1 111350Z 33005KT M08/M15 A3019 RMK A01 T10761148  RH  057%=      5-min Rain = 0
KPT1 111355Z 33006KT M08/M15 A3019 RMK A01 T10751147  RH  057%=      5-min Rain = 0
KPT1 111400Z 33006KT M08/M15 A302 RMK A01 T10751147  RH  057%=      5-min Rain = 0
KPT1 111405Z 32006KT M08/M15 A302 RMK A01 T10751147  RH  058%=      5-min Rain = 0
KPT1 111410Z 32006KT M08/M15 A302 RMK A01 T10751147  RH  057%=      5-min Rain = 0
KPT1 111415Z 33006KT M07/M15 A302 RMK A01 T10731146  RH  057%=      5-min Rain = 0
KPT1 111420Z 32006KT M07/M15 A302 RMK A01 T10711145  RH  056%=      5-min Rain = 0
KPT1 111425Z 32007KT M07/M14 A3021 RMK A01 T10681144  RH  056%=      5-min Rain = 0
KPT1 111430Z 33008KT M06/M14 A3021 RMK A01 T10631142  RH  054%=      5-min Rain = 0
KPT1 111435Z 32008KT M06/M14 A3021 RMK A01 T10591142  RH  053%=      5-min Rain = 0
KPT1 111440Z 33008KT M06/M14 A3021 RMK A01 T10561142  RH  052%=      5-min Rain = 0
KPT1 111445Z 33009KT M06/M14 A3021 RMK A01 T10551142  RH  051%=      5-min Rain = 0
KPT1 111450Z 33009KT M05/M14 A3021 RMK A01 T10531142  RH  050%=      5-min Rain = 0
KPT1 111455Z 34010KT M05/M14 A3022 RMK A01 T10511142  RH  050%=      5-min Rain = 0
KPT1 111500Z 33010G15KT M05/M14 A3022 RMK A01 T10501142  RH  049%=      5-min Rain = 0
KPT1 111505Z 33009KT M05/M14 A3022 RMK A01 T10451140  RH  048%=      5-min Rain = 0
KPT1 111510Z 34010KT M04/M14 A3022 RMK A01 T10421140  RH  047%=      5-min Rain = 0
KPT1 111515Z 34010G15KT M04/M14 A3023 RMK A01 T10401139  RH  047%=      5-min Rain = 0
KPT1 111520Z 34010KT M03/M14 A3023 RMK A01 T10331137  RH  045%=      5-min Rain = 0
KPT1 111525Z 34011G16KT M03/M14 A3023 RMK A01 T10291138  RH  043%=      5-min Rain = 0
KPT1 111530Z 33013KT M03/M14 A3023 RMK A01 T10301138  RH  044%=      5-min Rain = 0
KPT1 111535Z 36012KT M03/M14 A3022 RMK A01 T10281139  RH  043%=      5-min Rain = 0
KPT1 111540Z 34011G17KT M03/M14 A3022 RMK A01 T10321139  RH  044%=      5-min Rain = 0
KPT1 111545Z 35013KT M03/M14 A3022 RMK A01 T10301138  RH  044%=      5-min Rain = 0
KPT1 111550Z 35011KT M03/M14 A3023 RMK A01 T10271137  RH  043%=      5-min Rain = 0
KPT1 111555Z 34012KT M02/M14 A3023 RMK A01 T10201136  RH  041%=      5-min Rain = 0
KPT1 111600Z 35013KT M02/M14 A3023 RMK A01 T10221138  RH  041%=      5-min Rain = 0
KPT1 111605Z 36013G18KT M02/M14 A3023 RMK A01 T10171136  RH  041%=      5-min Rain = 0
KPT1 111610Z 35013G20KT M01/M13 A3023 RMK A01 T10111134  RH  039%=      5-min Rain = 0
KPT1 111615Z 35013G19KT M01/M14 A3023 RMK A01 T10121135  RH  039%=      5-min Rain = 0
KPT1 111620Z 01013KT M01/M13 A3023 RMK A01 T10081133  RH  039%=      5-min Rain = 0
KPT1 111625Z 01012G17KT M00/M13 A3023 RMK A01 T10041133  RH  038%=      5-min Rain = 0
KPT1 111630Z 01013G18KT M01/M14 A3023 RMK A01 T10091135  RH  038%=      5-min Rain = 0
KPT1 111635Z 00010G15KT M01/M13 A3024 RMK A01 T10061133  RH  038%=      5-min Rain = 0
KPT1 111640Z 35012G17KT M01/M13 A3024 RMK A01 T10061133  RH  038%=      5-min Rain = 0
KPT1 111645Z 35012G17KT M01/M13 A3024 RMK A01 T10101134  RH  039%=      5-min Rain = 0
KPT1 111650Z 35011G16KT M01/M13 A3024 RMK A01 T10101134  RH  039%=      5-min Rain = 0
KPT1 111655Z 35010KT M01/M13 A3024 RMK A01 T10101134  RH  039%=      5-min Rain = 0
KPT1 111700Z 35010KT M01/M13 A3024 RMK A01 T10091134  RH  039%=      5-min Rain = 0
KPT1 111705Z 36010KT M01/M13 A3024 RMK A01 T10091134  RH  039%=      5-min Rain = 0
KPT1 111710Z 36009KT M01/M13 A3024 RMK A01 T10101134  RH  039%=      5-min Rain = 0
KPT1 111715Z 01011KT M01/M13 A3024 RMK A01 T10071133  RH  039%=      5-min Rain = 0
KPT1 111720Z 00009KT M00/M13 A3024 RMK A01 T10041132  RH  038%=      5-min Rain = 0
KPT1 111725Z 36009G14KT M00/M13 A3024 RMK A01 T10011131  RH  038%=      5-min Rain = 0
KPT1 111730Z 35009G16KT 00/M13 A3024 RMK A01 T00011130  RH  037%=      5-min Rain = 0
KPT1 111735Z 34009KT 01/M13 A3024 RMK A01 T00071128  RH  036%=      5-min Rain = 0
KPT1 111740Z 36011KT 01/M13 A3024 RMK A01 T00121128  RH  035%=      5-min Rain = 0
KPT1 111745Z 35010G17KT 02/M13 A3024 RMK A01 T00161126  RH  035%=      5-min Rain = 0
KPT1 111750Z 34010G15KT 02/M13 A3024 RMK A01 T00161126  RH  034%=      5-min Rain = 0
KPT1 111755Z 35011G16KT 02/M13 A3023 RMK A01 T00151126  RH  035%=      5-min Rain = 0
KPT1 111800Z 34011G16KT 02/M13 A3023 RMK A01 T00151126  RH  035%=      5-min Rain = 0
KPT1 111805Z 36009G14KT 01/M13 A3023 RMK A01 T00101127  RH  036%=      5-min Rain = 0
KPT1 111810Z 35010G15KT 01/M13 A3023 RMK A01 T00111126  RH  036%=      5-min Rain = 0
KPT1 111815Z 34011G18KT 01/M13 A3023 RMK A01 T00061127  RH  037%=      5-min Rain = 0
KPT1 111820Z 34010G16KT 01/M13 A3023 RMK A01 T00071125  RH  037%=      5-min Rain = 0
KPT1 111825Z 34008G13KT 01/M13 A3023 RMK A01 T00081125  RH  037%=      5-min Rain = 0
KPT1 111830Z 34008KT 01/M12 A3022 RMK A01 T00101123  RH  037%=      5-min Rain = 0
KPT1 111835Z 34009KT 01/M12 A3022 RMK A01 T00141123  RH  036%=      5-min Rain = 0
KPT1 111840Z 35011G16KT 01/M12 A3022 RMK A01 T00111124  RH  036%=      5-min Rain = 0
KPT1 111845Z 34011KT 01/M13 A3022 RMK A01 T00081125  RH  037%=      5-min Rain = 0
KPT1 111850Z 35009G14KT 01/M13 A3022 RMK A01 T00121125  RH  036%=      5-min Rain = 0
KPT1 111855Z 35008G13KT 02/M13 A3021 RMK A01 T00181125  RH  034%=      5-min Rain = 0
KPT1 111900Z 36009KT 02/M13 A3021 RMK A01 T00161127  RH  034%=      5-min Rain = 0
KPT1 111905Z 01008KT 02/M13 A302 RMK A01 T00181126  RH  034%=      5-min Rain = 0
KPT1 111910Z 36009KT 02/M13 A302 RMK A01 T00201127  RH  033%=      5-min Rain = 0
KPT1 111915Z 01009G14KT 02/M13 A302 RMK A01 T00191127  RH  033%=      5-min Rain = 0
KPT1 111920Z 00009KT 02/M13 A302 RMK A01 T00201127  RH  033%=      5-min Rain = 0
KPT1 111925Z 34008KT 02/M13 A3019 RMK A01 T00221126  RH  033%=      5-min Rain = 0
KPT1 111930Z 33008KT 03/M13 A3019 RMK A01 T00251126  RH  033%=      5-min Rain = 0
KPT1 111935Z 33009KT 03/M13 A3019 RMK A01 T00271125  RH  032%=      5-min Rain = 0
KPT1 111940Z 33009G15KT 03/M13 A3019 RMK A01 T00291125  RH  032%=      5-min Rain = 0
KPT1 111945Z 34010KT 03/M13 A3018 RMK A01 T00281125  RH  032%=      5-min Rain = 0
KPT1 111950Z 33008G14KT 03/M13 A3018 RMK A01 T00311125  RH  031%=      5-min Rain = 0
KPT1 111955Z 34008KT 03/M12 A3018 RMK A01 T00321124  RH  031%=      5-min Rain = 0
KPT1 112000Z 01008G13KT 03/M13 A3018 RMK A01 T00311125  RH  031%=      5-min Rain = 0
KPT1 112005Z 00007KT 03/M13 A3018 RMK A01 T00291125  RH  032%=      5-min Rain = 0
KPT1 112010Z 01007KT 04/M12 A3018 RMK A01 T00351123  RH  031%=      5-min Rain = 0
KPT1 112015Z 00008KT 04/M12 A3017 RMK A01 T00381124  RH  030%=      5-min Rain = 0
KPT1 112020Z 34007KT 04/M12 A3017 RMK A01 T00361124  RH  030%=      5-min Rain = 0
KPT1 112025Z 33008KT 05/M12 A3017 RMK A01 T00481121  RH  029%=      5-min Rain = 0
KPT1 112030Z 00008G14KT 05/M12 A3017 RMK A01 T00511122  RH  028%=      5-min Rain = 0
KPT1 112035Z 02007KT 05/M13 A3017 RMK A01 T00481125  RH  028%=      5-min Rain = 0
KPT1 112040Z 02004KT 05/M13 A3017 RMK A01 T00471125  RH  028%=      5-min Rain = 0
KPT1 112045Z 01006G11KT 05/M12 A3016 RMK A01 T00521124  RH  027%=      5-min Rain = 0
KPT1 112050Z 02006KT 06/M13 A3016 RMK A01 T00571125  RH  026%=      5-min Rain = 0
KPT1 112055Z 02006G11KT 06/M12 A3016 RMK A01 T00581124  RH  026%=      5-min Rain = 0
KPT1 112100Z 02006G11KT 06/M13 A3016 RMK A01 T00591127  RH  025%=      5-min Rain = 0
KPT1 112105Z 03007G12KT 06/M13 A3016 RMK A01 T00561128  RH  026%=      5-min Rain = 0
KPT1 112110Z 01006G11KT 06/M13 A3016 RMK A01 T00571127  RH  025%=      5-min Rain = 0
KPT1 112115Z 02007G12KT 06/M13 A3015 RMK A01 T00601127  RH  025%=      5-min Rain = 0
KPT1 112120Z 02004G9KT 06/M13 A3015 RMK A01 T00601129  RH  025%=      5-min Rain = 0
KPT1 112125Z 35002KT 06/M13 A3015 RMK A01 T00601127  RH  025%=      5-min Rain = 0
KPT1 112130Z 01004KT 06/M13 A3015 RMK A01 T00631127  RH  025%=      5-min Rain = 0
KPT1 112135Z 02006G11KT 07/M13 A3015 RMK A01 T00691129  RH  023%=      5-min Rain = 0
KPT1 112140Z 35004KT 07/M13 A3015 RMK A01 T00671131  RH  023%=      5-min Rain = 0
KPT1 112145Z 03005KT 07/M13 A3015 RMK A01 T00691132  RH  023%=      5-min Rain = 0
KPT1 112150Z 02006KT 07/M13 A3015 RMK A01 T00671133  RH  023%=      5-min Rain = 0
KPT1 112155Z 03004G9KT 07/M13 A3015 RMK A01 T00681132  RH  023%=      5-min Rain = 0
KPT1 112200Z 04003KT 07/M13 A3015 RMK A01 T00681133  RH  023%=      5-min Rain = 0
KPT1 112205Z 06006KT 06/M14 A3015 RMK A01 T00641136  RH  023%=      5-min Rain = 0
KPT1 112210Z 06004KT 07/M14 A3015 RMK A01 T00671135  RH  022%=      5-min Rain = 0
KPT1 112215Z 05005G10KT 07/M14 A3015 RMK A01 T00661135  RH  023%=      5-min Rain = 0
KPT1 112220Z 03002G7KT 07/M14 A3015 RMK A01 T00681135  RH  022%=      5-min Rain = 0
KPT1 112225Z 33003KT 07/M14 A3015 RMK A01 T00681135  RH  022%=      5-min Rain = 0
KPT1 112230Z 03005KT 06/M14 A3015 RMK A01 T00621137  RH  023%=      5-min Rain = 0
KPT1 112235Z 03006KT 06/M14 A3015 RMK A01 T00621137  RH  023%=      5-min Rain = 0
KPT1 112240Z 00004KT 07/M14 A3015 RMK A01 T00681136  RH  022%=      5-min Rain = 0
KPT1 112245Z 34002KT 07/M14 A3015 RMK A01 T00681136  RH  022%=      5-min Rain = 0
KPT1 112250Z 36003KT 06/M14 A3015 RMK A01 T00641136  RH  023%=      5-min Rain = 0
KPT1 112255Z 01003KT 06/M14 A3015 RMK A01 T00641136  RH  023%=      5-min Rain = 0
KPT1 112300Z 02002KT 07/M14 A3015 RMK A01 T00691136  RH  022%=      5-min Rain = 0
KPT1 112305Z 07005KT 07/M14 A3016 RMK A01 T00661138  RH  022%=      5-min Rain = 0
KPT1 112310Z 11004KT 07/M14 A3016 RMK A01 T00661138  RH  022%=      5-min Rain = 0
KPT1 112315Z 06004KT 07/M14 A3016 RMK A01 T00661139  RH  022%=      5-min Rain = 0
KPT1 112320Z 06003KT 06/M14 A3016 RMK A01 T00621140  RH  022%=      5-min Rain = 0
KPT1 112325Z 10002KT 06/M14 A3016 RMK A01 T00591139  RH  023%=      5-min Rain = 0
KPT1 112330Z 10004KT 06/M14 A3016 RMK A01 T00621139  RH  022%=      5-min Rain = 0
KPT1 112335Z 10003KT 06/M14 A3017 RMK A01 T00631139  RH  022%=      5-min Rain = 0
KPT1 112340Z 07004KT 06/M14 A3017 RMK A01 T00621140  RH  022%=      5-min Rain = 0
KPT1 112345Z 05002KT 06/M14 A3017 RMK A01 T00611139  RH  023%=      5-min Rain = 0
KPT1 112350Z 07003KT 06/M14 A3017 RMK A01 T00581140  RH  023%=      5-min Rain = 0
KPT1 112355Z 08003KT 05/M14 A3017 RMK A01 T00541140  RH  024%=      5-min Rain = 0
KPT1 120000Z 10004KT 05/M14 A3017 RMK A01 T00491140  RH  024%=      5-min Rain = 0
KPT1 120005Z 10003KT 05/M14 A3017 RMK A01 T00481140  RH  025%=      5-min Rain = 0
KPT1 120010Z 09004KT 05/M14 A3017 RMK A01 T00481140  RH  024%=      5-min Rain = 0
KPT1 120015Z 10004KT 04/M14 A3017 RMK A01 T00441141  RH  025%=      5-min Rain = 0
KPT1 120020Z 10004KT 04/M14 A3017 RMK A01 T00411141  RH  025%=      5-min Rain = 0
KPT1 120025Z 09005KT 04/M14 A3018 RMK A01 T00391142  RH  026%=      5-min Rain = 0
KPT1 120030Z 09004KT 04/M14 A3018 RMK A01 T00381142  RH  026%=      5-min Rain = 0
KPT1 120035Z 11004KT 04/M14 A3018 RMK A01 T00381142  RH  026%=      5-min Rain = 0
KPT1 120040Z 11005KT 04/M14 A3018 RMK A01 T00381142  RH  026%=      5-min Rain = 0
KPT1 120045Z 11005KT 04/M14 A3018 RMK A01 T00361142  RH  026%=      5-min Rain = 0
KPT1 120050Z 10006KT 03/M14 A3018 RMK A01 T00321143  RH  027%=      5-min Rain = 0
KPT1 120055Z 11006KT 03/M14 A3018 RMK A01 T00311142  RH  027%=      5-min Rain = 0
KPT1 120100Z 11006KT 03/M14 A3018 RMK A01 T00301143  RH  027%=      5-min Rain = 0
KPT1 120105Z 11006KT 03/M14 A3018 RMK A01 T00281144  RH  027%=      5-min Rain = 0
KPT1 120110Z 11007KT 03/M14 A3019 RMK A01 T00281144  RH  027%=      5-min Rain = 0
KPT1 120115Z 11006KT 03/M15 A3019 RMK A01 T00251145  RH  028%=      5-min Rain = 0
KPT1 120120Z 14006KT 02/M15 A3019 RMK A01 T00211147  RH  028%=      5-min Rain = 0
KPT1 120125Z 14006KT 02/M15 A3019 RMK A01 T00151147  RH  029%=      5-min Rain = 0
KPT1 120130Z 16004KT 01/M15 A3019 RMK A01 T00131146  RH  030%=      5-min Rain = 0
KPT1 120135Z 16005KT 01/M15 A3019 RMK A01 T00131145  RH  030%=      5-min Rain = 0
KPT1 120140Z 16004KT 01/M14 A302 RMK A01 T00131144  RH  030%=      5-min Rain = 0
KPT1 120145Z 16004KT 01/M14 A302 RMK A01 T00131144  RH  030%=      5-min Rain = 0
KPT1 120150Z 16004KT 01/M14 A302 RMK A01 T00121143  RH  031%=      5-min Rain = 0
KPT1 120155Z 16004KT 01/M14 A302 RMK A01 T00121142  RH  031%=      5-min Rain = 0
KPT1 120200Z 16004KT 01/M14 A302 RMK A01 T00111142  RH  031%=      5-min Rain = 0
KPT1 120205Z 17004KT 01/M14 A3021 RMK A01 T00111142  RH  031%=      5-min Rain = 0
KPT1 120210Z 16004KT 01/M14 A3021 RMK A01 T00131141  RH  031%=      5-min Rain = 0
KPT1 120215Z 17004KT 01/M14 A3021 RMK A01 T00121141  RH  031%=      5-min Rain = 0
KPT1 120220Z 17004KT 01/M14 A3021 RMK A01 T00121141  RH  031%=      5-min Rain = 0
KPT1 120225Z 17004KT 01/M14 A3021 RMK A01 T00131141  RH  031%=      5-min Rain = 0
KPT1 120230Z 17004KT 01/M14 A3021 RMK A01 T00121142  RH  031%=      5-min Rain = 0
KPT1 120235Z 16004KT 01/M14 A3021 RMK A01 T00091142  RH  032%=      5-min Rain = 0
KPT1 120240Z 16004KT 01/M14 A3021 RMK A01 T00101141  RH  032%=      5-min Rain = 0
KPT1 120245Z 16004KT 01/M14 A3021 RMK A01 T00111142  RH  032%=      5-min Rain = 0
KPT1 120250Z 16004KT 01/M14 A3021 RMK A01 T00091142  RH  032%=      5-min Rain = 0
KPT1 120255Z 16004KT 01/M14 A3022 RMK A01 T00081142  RH  032%=      5-min Rain = 0
KPT1 120300Z 15003KT 01/M14 A3022 RMK A01 T00071142  RH  032%=      5-min Rain = 0
KPT1 120305Z 15004KT 01/M14 A3022 RMK A01 T00081141  RH  032%=      5-min Rain = 0
KPT1 120310Z 15004KT 01/M14 A3022 RMK A01 T00081141  RH  032%=      5-min Rain = 0
KPT1 120315Z 15004KT 01/M14 A3022 RMK A01 T00061141  RH  033%=      5-min Rain = 0
KPT1 120320Z 15003KT 01/M14 A3023 RMK A01 T00071141  RH  033%=      5-min Rain = 0
KPT1 120325Z 15003KT 01/M14 A3023 RMK A01 T00071140  RH  033%=      5-min Rain = 0
KPT1 120330Z 16004KT 01/M14 A3023 RMK A01 T00051141  RH  033%=      5-min Rain = 0
KPT1 120335Z 16004KT 00/M14 A3023 RMK A01 T00041140  RH  033%=      5-min Rain = 0
KPT1 120340Z 15003KT 00/M14 A3023 RMK A01 T00031141  RH  034%=      5-min Rain = 0
KPT1 120345Z 16003KT 00/M14 A3023 RMK A01 T00021141  RH  034%=      5-min Rain = 0
KPT1 120350Z 16003KT 00/M14 A3024 RMK A01 T00021141  RH  034%=      5-min Rain = 0
KPT1 120355Z 17003KT 00/M14 A3024 RMK A01 T00021141  RH  034%=      5-min Rain = 0
KPT1 120400Z 15003KT 00/M14 A3024 RMK A01 T00011141  RH  034%=      5-min Rain = 0
KPT1 120405Z 14004KT 00/14 A3024 RMK A01 T00000-142  RH  034%=      5-min Rain = 0
KPT1 120410Z 15003KT 00/14 A3024 RMK A01 T00-00-142  RH  034%=      5-min Rain = 0
KPT1 120415Z 15003KT M00/M14 A3024 RMK A01 T10021142  RH  034%=      5-min Rain = 0
KPT1 120420Z 14003KT M00/M14 A3024 RMK A01 T10031142  RH  035%=      5-min Rain = 0
KPT1 120425Z 14003KT M00/M14 A3024 RMK A01 T10031142  RH  035%=      5-min Rain = 0
KPT1 120430Z 14003KT M00/M14 A3024 RMK A01 T10041141  RH  035%=      5-min Rain = 0
KPT1 120435Z 13002KT M01/M14 A3024 RMK A01 T10061141  RH  036%=      5-min Rain = 0
KPT1 120440Z 11002KT M01/M14 A3024 RMK A01 T10081142  RH  036%=      5-min Rain = 0
KPT1 120445Z 10001KT M01/M14 A3024 RMK A01 T10091141  RH  037%=      5-min Rain = 0
KPT1 120450Z 08001KT M01/M14 A3024 RMK A01 T10091141  RH  037%=      5-min Rain = 0
KPT1 120455Z 04002KT M01/M14 A3024 RMK A01 T10091143  RH  036%=      5-min Rain = 0
KPT1 120500Z 05002KT M01/M14 A3024 RMK A01 T10091142  RH  036%=      5-min Rain = 0
KPT1 120505Z 04002KT M01/M14 A3024 RMK A01 T10091143  RH  036%=      5-min Rain = 0
KPT1 120510Z 01001KT M01/M14 A3024 RMK A01 T10131144  RH  037%=      5-min Rain = 0
KPT1 120515Z 02001KT M01/M14 A3024 RMK A01 T10141144  RH  037%=      5-min Rain = 0
KPT1 120520Z 04001KT M01/M14 A3024 RMK A01 T10141143  RH  037%=      5-min Rain = 0
KPT1 120525Z 04001KT M01/M14 A3024 RMK A01 T10121142  RH  037%=      5-min Rain = 0
KPT1 120530Z 02002KT M01/M14 A3024 RMK A01 T10141143  RH  037%=      5-min Rain = 0
KPT1 120535Z 35002KT M02/M15 A3024 RMK A01 T10191145  RH  038%=      5-min Rain = 0
KPT1 120540Z 35003KT M02/M15 A3024 RMK A01 T10231146  RH  039%=      5-min Rain = 0
KPT1 120545Z 34004KT M03/M15 A3024 RMK A01 T10261147  RH  040%=      5-min Rain = 0
KPT1 120550Z 34003KT M03/M15 A3024 RMK A01 T10291148  RH  040%=      5-min Rain = 0
KPT1 120555Z 33003KT M03/M15 A3024 RMK A01 T10311148  RH  040%=      5-min Rain = 0

Page generated in 0.0217 seconds.